sensor_id;sensor_type;location;lat;lon;timestamp;P1;durP1;ratioP1;P2;durP2;ratioP2
5333;SDS011;2689;50.954;7.116;2022-10-18T00:00:12;5.63;;;4.60;;
5333;SDS011;2689;50.954;7.116;2022-10-18T00:02:39;8.13;;;5.30;;
5333;SDS011;2689;50.954;7.116;2022-10-18T00:05:06;6.10;;;4.90;;
5333;SDS011;2689;50.954;7.116;2022-10-18T00:07:33;8.37;;;4.93;;
5333;SDS011;2689;50.954;7.116;2022-10-18T00:10:01;6.53;;;5.33;;
5333;SDS011;2689;50.954;7.116;2022-10-18T00:12:30;9.83;;;5.03;;
5333;SDS011;2689;50.954;7.116;2022-10-18T00:14:57;6.37;;;4.73;;
5333;SDS011;2689;50.954;7.116;2022-10-18T00:17:24;8.83;;;4.50;;
5333;SDS011;2689;50.954;7.116;2022-10-18T00:19:51;5.60;;;4.47;;
5333;SDS011;2689;50.954;7.116;2022-10-18T00:22:18;10.97;;;4.70;;
5333;SDS011;2689;50.954;7.116;2022-10-18T00:24:45;6.90;;;5.50;;
5333;SDS011;2689;50.954;7.116;2022-10-18T00:27:11;9.00;;;4.63;;
5333;SDS011;2689;50.954;7.116;2022-10-18T00:29:40;9.53;;;5.40;;
5333;SDS011;2689;50.954;7.116;2022-10-18T00:32:06;10.47;;;5.30;;
5333;SDS011;2689;50.954;7.116;2022-10-18T00:34:33;7.83;;;5.17;;
5333;SDS011;2689;50.954;7.116;2022-10-18T00:37:00;6.23;;;4.70;;
5333;SDS011;2689;50.954;7.116;2022-10-18T00:39:27;10.63;;;5.53;;
5333;SDS011;2689;50.954;7.116;2022-10-18T00:41:54;9.00;;;5.30;;
5333;SDS011;2689;50.954;7.116;2022-10-18T00:47:28;7.70;;;5.63;;
5333;SDS011;2689;50.954;7.116;2022-10-18T00:49:55;6.03;;;5.43;;
5333;SDS011;2689;50.954;7.116;2022-10-18T00:52:26;7.40;;;4.97;;
5333;SDS011;2689;50.954;7.116;2022-10-18T00:54:56;12.00;;;5.90;;
5333;SDS011;2689;50.954;7.116;2022-10-18T00:57:23;8.07;;;5.20;;
5333;SDS011;2689;50.954;7.116;2022-10-18T00:59:50;8.13;;;4.80;;
5333;SDS011;2689;50.954;7.116;2022-10-18T01:02:19;7.40;;;5.77;;
5333;SDS011;2689;50.954;7.116;2022-10-18T01:04:47;6.03;;;5.33;;
5333;SDS011;2689;50.954;7.116;2022-10-18T01:07:18;6.90;;;5.73;;
5333;SDS011;2689;50.954;7.116;2022-10-18T01:10:06;9.03;;;5.93;;
5333;SDS011;2689;50.954;7.116;2022-10-18T01:12:45;8.70;;;5.40;;
5333;SDS011;2689;50.954;7.116;2022-10-18T01:15:20;7.10;;;5.40;;
5333;SDS011;2689;50.954;7.116;2022-10-18T01:18:02;7.30;;;6.07;;
5333;SDS011;2689;50.954;7.116;2022-10-18T01:20:49;10.47;;;6.70;;
5333;SDS011;2689;50.954;7.116;2022-10-18T01:26:53;11.13;;;5.60;;
5333;SDS011;2689;50.954;7.116;2022-10-18T01:29:43;7.00;;;5.73;;
5333;SDS011;2689;50.954;7.116;2022-10-18T01:32:20;7.20;;;6.50;;
5333;SDS011;2689;50.954;7.116;2022-10-18T01:34:51;7.40;;;6.53;;
5333;SDS011;2689;50.954;7.116;2022-10-18T01:37:21;9.20;;;6.97;;
5333;SDS011;2689;50.954;7.116;2022-10-18T01:39:50;9.10;;;6.37;;
5333;SDS011;2689;50.954;7.116;2022-10-18T01:42:20;9.03;;;6.27;;
5333;SDS011;2689;50.954;7.116;2022-10-18T01:47:38;8.73;;;6.20;;
5333;SDS011;2689;50.954;7.116;2022-10-18T01:50:07;8.93;;;6.77;;
5333;SDS011;2689;50.954;7.116;2022-10-18T01:52:34;8.20;;;6.10;;
5333;SDS011;2689;50.954;7.116;2022-10-18T01:55:01;13.20;;;8.00;;
5333;SDS011;2689;50.954;7.116;2022-10-18T01:57:30;7.97;;;6.80;;
5333;SDS011;2689;50.954;7.116;2022-10-18T02:00:03;8.27;;;6.90;;
5333;SDS011;2689;50.954;7.116;2022-10-18T02:02:40;8.10;;;6.53;;
5333;SDS011;2689;50.954;7.116;2022-10-18T02:05:12;7.60;;;6.57;;
5333;SDS011;2689;50.954;7.116;2022-10-18T02:07:46;9.50;;;6.80;;
5333;SDS011;2689;50.954;7.116;2022-10-18T02:10:17;9.30;;;6.40;;
5333;SDS011;2689;50.954;7.116;2022-10-18T02:12:49;12.60;;;7.90;;
5333;SDS011;2689;50.954;7.116;2022-10-18T02:15:20;8.57;;;7.60;;
5333;SDS011;2689;50.954;7.116;2022-10-18T02:17:50;9.53;;;7.37;;
5333;SDS011;2689;50.954;7.116;2022-10-18T02:20:20;8.90;;;7.20;;
5333;SDS011;2689;50.954;7.116;2022-10-18T02:22:49;8.80;;;7.30;;
5333;SDS011;2689;50.954;7.116;2022-10-18T02:25:19;11.43;;;7.87;;
5333;SDS011;2689;50.954;7.116;2022-10-18T02:27:48;10.87;;;7.30;;
5333;SDS011;2689;50.954;7.116;2022-10-18T02:30:16;9.60;;;7.13;;
5333;SDS011;2689;50.954;7.116;2022-10-18T02:32:45;9.40;;;8.00;;
5333;SDS011;2689;50.954;7.116;2022-10-18T02:35:18;10.20;;;7.90;;
5333;SDS011;2689;50.954;7.116;2022-10-18T02:37:48;14.17;;;8.03;;
5333;SDS011;2689;50.954;7.116;2022-10-18T02:40:18;11.33;;;7.60;;
5333;SDS011;2689;50.954;7.116;2022-10-18T02:42:45;9.20;;;7.10;;
5333;SDS011;2689;50.954;7.116;2022-10-18T02:45:13;12.93;;;8.00;;
5333;SDS011;2689;50.954;7.116;2022-10-18T02:47:41;11.63;;;8.00;;
5333;SDS011;2689;50.954;7.116;2022-10-18T02:50:08;9.03;;;7.17;;
5333;SDS011;2689;50.954;7.116;2022-10-18T02:52:36;9.63;;;7.63;;
5333;SDS011;2689;50.954;7.116;2022-10-18T02:55:04;13.57;;;8.40;;
5333;SDS011;2689;50.954;7.116;2022-10-18T02:57:32;9.93;;;7.10;;
5333;SDS011;2689;50.954;7.116;2022-10-18T02:59:58;7.90;;;6.93;;
5333;SDS011;2689;50.954;7.116;2022-10-18T03:02:25;9.43;;;7.80;;
5333;SDS011;2689;50.954;7.116;2022-10-18T03:04:52;18.90;;;8.43;;
5333;SDS011;2689;50.954;7.116;2022-10-18T03:07:19;8.37;;;7.00;;
5333;SDS011;2689;50.954;7.116;2022-10-18T03:09:47;11.20;;;7.30;;
5333;SDS011;2689;50.954;7.116;2022-10-18T03:12:14;7.37;;;6.57;;
5333;SDS011;2689;50.954;7.116;2022-10-18T03:14:41;9.60;;;7.17;;
5333;SDS011;2689;50.954;7.116;2022-10-18T03:17:08;10.77;;;7.83;;
5333;SDS011;2689;50.954;7.116;2022-10-18T03:19:35;11.40;;;7.77;;
5333;SDS011;2689;50.954;7.116;2022-10-18T03:22:02;10.57;;;8.67;;
5333;SDS011;2689;50.954;7.116;2022-10-18T03:24:29;8.50;;;7.07;;
5333;SDS011;2689;50.954;7.116;2022-10-18T03:26:57;9.37;;;7.83;;
5333;SDS011;2689;50.954;7.116;2022-10-18T03:29:24;9.23;;;8.30;;
5333;SDS011;2689;50.954;7.116;2022-10-18T03:31:51;12.93;;;9.30;;
5333;SDS011;2689;50.954;7.116;2022-10-18T03:34:17;10.87;;;8.47;;
5333;SDS011;2689;50.954;7.116;2022-10-18T03:36:44;10.67;;;9.53;;
5333;SDS011;2689;50.954;7.116;2022-10-18T03:39:11;9.53;;;8.00;;
5333;SDS011;2689;50.954;7.116;2022-10-18T03:41:38;10.50;;;9.17;;
5333;SDS011;2689;50.954;7.116;2022-10-18T03:44:06;9.93;;;8.83;;
5333;SDS011;2689;50.954;7.116;2022-10-18T03:46:33;10.10;;;8.30;;
5333;SDS011;2689;50.954;7.116;2022-10-18T03:49:00;9.63;;;8.63;;
5333;SDS011;2689;50.954;7.116;2022-10-18T03:51:26;10.70;;;8.63;;
5333;SDS011;2689;50.954;7.116;2022-10-18T03:53:53;9.47;;;7.90;;
5333;SDS011;2689;50.954;7.116;2022-10-18T03:56:20;12.13;;;8.30;;
5333;SDS011;2689;50.954;7.116;2022-10-18T03:58:47;8.90;;;8.00;;
5333;SDS011;2689;50.954;7.116;2022-10-18T04:01:15;14.77;;;8.37;;
5333;SDS011;2689;50.954;7.116;2022-10-18T04:03:42;11.00;;;9.10;;
5333;SDS011;2689;50.954;7.116;2022-10-18T04:06:08;9.87;;;8.83;;
5333;SDS011;2689;50.954;7.116;2022-10-18T04:08:43;11.30;;;8.50;;
5333;SDS011;2689;50.954;7.116;2022-10-18T04:11:10;11.47;;;9.00;;
5333;SDS011;2689;50.954;7.116;2022-10-18T04:13:36;8.80;;;7.90;;
5333;SDS011;2689;50.954;7.116;2022-10-18T04:16:03;14.20;;;8.17;;
5333;SDS011;2689;50.954;7.116;2022-10-18T04:18:32;9.73;;;8.50;;
5333;SDS011;2689;50.954;7.116;2022-10-18T04:20:58;8.60;;;7.70;;
5333;SDS011;2689;50.954;7.116;2022-10-18T04:23:25;10.63;;;9.00;;
5333;SDS011;2689;50.954;7.116;2022-10-18T04:25:52;10.70;;;7.67;;
5333;SDS011;2689;50.954;7.116;2022-10-18T04:28:19;11.77;;;8.53;;
5333;SDS011;2689;50.954;7.116;2022-10-18T04:30:48;9.10;;;7.70;;
5333;SDS011;2689;50.954;7.116;2022-10-18T04:33:16;8.47;;;7.57;;
5333;SDS011;2689;50.954;7.116;2022-10-18T04:35:44;11.60;;;8.20;;
5333;SDS011;2689;50.954;7.116;2022-10-18T04:38:10;9.90;;;8.00;;
5333;SDS011;2689;50.954;7.116;2022-10-18T04:40:38;9.90;;;7.47;;
5333;SDS011;2689;50.954;7.116;2022-10-18T04:43:05;8.30;;;7.20;;
5333;SDS011;2689;50.954;7.116;2022-10-18T04:45:31;9.13;;;7.67;;
5333;SDS011;2689;50.954;7.116;2022-10-18T04:47:58;11.23;;;7.20;;
5333;SDS011;2689;50.954;7.116;2022-10-18T04:50:25;13.77;;;8.80;;
5333;SDS011;2689;50.954;7.116;2022-10-18T04:52:53;8.53;;;7.73;;
5333;SDS011;2689;50.954;7.116;2022-10-18T04:55:20;9.43;;;7.73;;
5333;SDS011;2689;50.954;7.116;2022-10-18T04:57:47;8.63;;;7.33;;
5333;SDS011;2689;50.954;7.116;2022-10-18T05:00:14;8.40;;;7.30;;
5333;SDS011;2689;50.954;7.116;2022-10-18T05:02:41;12.70;;;8.60;;
5333;SDS011;2689;50.954;7.116;2022-10-18T05:05:08;9.87;;;7.80;;
5333;SDS011;2689;50.954;7.116;2022-10-18T05:07:34;9.03;;;7.77;;
5333;SDS011;2689;50.954;7.116;2022-10-18T05:10:03;9.20;;;7.53;;
5333;SDS011;2689;50.954;7.116;2022-10-18T05:12:30;9.40;;;8.40;;
5333;SDS011;2689;50.954;7.116;2022-10-18T05:14:57;9.43;;;8.50;;
5333;SDS011;2689;50.954;7.116;2022-10-18T05:17:24;12.27;;;8.97;;
5333;SDS011;2689;50.954;7.116;2022-10-18T05:19:50;11.40;;;8.73;;
5333;SDS011;2689;50.954;7.116;2022-10-18T05:22:17;16.63;;;8.97;;
5333;SDS011;2689;50.954;7.116;2022-10-18T05:24:44;11.27;;;9.50;;
5333;SDS011;2689;50.954;7.116;2022-10-18T05:27:13;16.70;;;9.60;;
5333;SDS011;2689;50.954;7.116;2022-10-18T05:29:40;10.67;;;8.57;;
5333;SDS011;2689;50.954;7.116;2022-10-18T05:32:07;12.67;;;9.40;;
5333;SDS011;2689;50.954;7.116;2022-10-18T05:34:34;17.40;;;8.80;;
5333;SDS011;2689;50.954;7.116;2022-10-18T05:37:01;11.90;;;8.60;;
5333;SDS011;2689;50.954;7.116;2022-10-18T05:39:28;11.83;;;8.90;;
5333;SDS011;2689;50.954;7.116;2022-10-18T05:41:54;11.07;;;8.70;;
5333;SDS011;2689;50.954;7.116;2022-10-18T05:44:23;14.67;;;9.43;;
5333;SDS011;2689;50.954;7.116;2022-10-18T05:46:50;10.73;;;8.50;;
5333;SDS011;2689;50.954;7.116;2022-10-18T05:49:17;13.03;;;8.70;;
5333;SDS011;2689;50.954;7.116;2022-10-18T05:51:44;14.10;;;9.30;;
5333;SDS011;2689;50.954;7.116;2022-10-18T05:54:11;10.10;;;8.70;;
5333;SDS011;2689;50.954;7.116;2022-10-18T05:56:38;13.20;;;8.73;;
5333;SDS011;2689;50.954;7.116;2022-10-18T05:59:05;12.63;;;8.10;;
5333;SDS011;2689;50.954;7.116;2022-10-18T06:01:37;13.90;;;9.20;;
5333;SDS011;2689;50.954;7.116;2022-10-18T06:04:05;9.97;;;8.77;;
5333;SDS011;2689;50.954;7.116;2022-10-18T06:06:32;14.10;;;9.20;;
5333;SDS011;2689;50.954;7.116;2022-10-18T06:08:59;12.37;;;9.67;;
5333;SDS011;2689;50.954;7.116;2022-10-18T06:11:27;14.23;;;10.43;;
5333;SDS011;2689;50.954;7.116;2022-10-18T06:13:55;16.57;;;10.63;;
5333;SDS011;2689;50.954;7.116;2022-10-18T06:16:22;18.50;;;10.00;;
5333;SDS011;2689;50.954;7.116;2022-10-18T06:18:53;12.23;;;8.80;;
5333;SDS011;2689;50.954;7.116;2022-10-18T06:21:26;15.77;;;10.53;;
5333;SDS011;2689;50.954;7.116;2022-10-18T06:23:53;13.30;;;9.77;;
5333;SDS011;2689;50.954;7.116;2022-10-18T06:26:21;11.27;;;9.20;;
5333;SDS011;2689;50.954;7.116;2022-10-18T06:28:48;14.93;;;8.60;;
5333;SDS011;2689;50.954;7.116;2022-10-18T06:31:15;12.97;;;9.57;;
5333;SDS011;2689;50.954;7.116;2022-10-18T06:33:43;11.53;;;9.30;;
5333;SDS011;2689;50.954;7.116;2022-10-18T06:36:12;11.83;;;8.90;;
5333;SDS011;2689;50.954;7.116;2022-10-18T06:38:40;10.10;;;8.40;;
5333;SDS011;2689;50.954;7.116;2022-10-18T06:41:07;9.70;;;8.50;;
5333;SDS011;2689;50.954;7.116;2022-10-18T06:43:34;14.17;;;8.47;;
5333;SDS011;2689;50.954;7.116;2022-10-18T06:46:01;11.67;;;8.67;;
5333;SDS011;2689;50.954;7.116;2022-10-18T06:48:31;11.73;;;8.03;;
5333;SDS011;2689;50.954;7.116;2022-10-18T06:50:59;11.70;;;8.20;;
5333;SDS011;2689;50.954;7.116;2022-10-18T06:53:29;9.40;;;8.40;;
5333;SDS011;2689;50.954;7.116;2022-10-18T06:55:58;12.40;;;8.77;;
5333;SDS011;2689;50.954;7.116;2022-10-18T06:58:25;9.90;;;8.70;;
5333;SDS011;2689;50.954;7.116;2022-10-18T07:00:52;8.70;;;7.80;;
5333;SDS011;2689;50.954;7.116;2022-10-18T07:03:19;9.60;;;7.70;;
5333;SDS011;2689;50.954;7.116;2022-10-18T07:05:46;8.87;;;7.93;;
5333;SDS011;2689;50.954;7.116;2022-10-18T07:08:13;9.03;;;7.97;;
5333;SDS011;2689;50.954;7.116;2022-10-18T07:10:41;9.97;;;8.23;;
5333;SDS011;2689;50.954;7.116;2022-10-18T07:13:15;9.27;;;7.87;;
5333;SDS011;2689;50.954;7.116;2022-10-18T07:15:42;10.60;;;9.10;;
5333;SDS011;2689;50.954;7.116;2022-10-18T07:18:09;12.50;;;8.10;;
5333;SDS011;2689;50.954;7.116;2022-10-18T07:20:35;9.90;;;8.33;;
5333;SDS011;2689;50.954;7.116;2022-10-18T07:23:02;10.53;;;7.77;;
5333;SDS011;2689;50.954;7.116;2022-10-18T07:25:32;9.23;;;7.27;;
5333;SDS011;2689;50.954;7.116;2022-10-18T07:28:00;11.80;;;9.00;;
5333;SDS011;2689;50.954;7.116;2022-10-18T07:30:27;12.80;;;8.90;;
5333;SDS011;2689;50.954;7.116;2022-10-18T07:32:54;10.70;;;8.90;;
5333;SDS011;2689;50.954;7.116;2022-10-18T07:35:20;11.13;;;9.40;;
5333;SDS011;2689;50.954;7.116;2022-10-18T07:37:47;11.20;;;9.20;;
5333;SDS011;2689;50.954;7.116;2022-10-18T07:40:14;10.50;;;8.57;;
5333;SDS011;2689;50.954;7.116;2022-10-18T07:42:41;12.37;;;9.20;;
5333;SDS011;2689;50.954;7.116;2022-10-18T07:45:09;12.00;;;9.90;;
5333;SDS011;2689;50.954;7.116;2022-10-18T07:47:37;13.00;;;9.90;;
5333;SDS011;2689;50.954;7.116;2022-10-18T07:50:04;10.10;;;9.10;;
5333;SDS011;2689;50.954;7.116;2022-10-18T07:52:32;11.03;;;8.93;;
5333;SDS011;2689;50.954;7.116;2022-10-18T07:54:59;10.80;;;8.10;;
5333;SDS011;2689;50.954;7.116;2022-10-18T07:57:28;13.77;;;9.37;;
5333;SDS011;2689;50.954;7.116;2022-10-18T07:59:55;11.90;;;9.53;;
5333;SDS011;2689;50.954;7.116;2022-10-18T08:02:23;11.27;;;9.13;;
5333;SDS011;2689;50.954;7.116;2022-10-18T08:04:50;10.80;;;9.70;;
5333;SDS011;2689;50.954;7.116;2022-10-18T08:07:17;10.30;;;8.63;;
5333;SDS011;2689;50.954;7.116;2022-10-18T08:09:44;9.53;;;7.67;;
5333;SDS011;2689;50.954;7.116;2022-10-18T08:12:11;11.57;;;9.27;;
5333;SDS011;2689;50.954;7.116;2022-10-18T08:14:39;11.53;;;9.30;;
5333;SDS011;2689;50.954;7.116;2022-10-18T08:17:06;10.33;;;8.63;;
5333;SDS011;2689;50.954;7.116;2022-10-18T08:19:34;12.13;;;8.80;;
5333;SDS011;2689;50.954;7.116;2022-10-18T08:22:02;10.10;;;8.63;;
5333;SDS011;2689;50.954;7.116;2022-10-18T08:24:31;11.27;;;8.47;;
5333;SDS011;2689;50.954;7.116;2022-10-18T08:27:11;11.40;;;8.83;;
5333;SDS011;2689;50.954;7.116;2022-10-18T08:29:38;12.97;;;8.50;;
5333;SDS011;2689;50.954;7.116;2022-10-18T08:32:07;14.80;;;9.23;;
5333;SDS011;2689;50.954;7.116;2022-10-18T08:34:36;12.97;;;7.40;;
5333;SDS011;2689;50.954;7.116;2022-10-18T08:37:05;10.50;;;7.90;;
5333;SDS011;2689;50.954;7.116;2022-10-18T08:39:32;10.33;;;8.00;;
5333;SDS011;2689;50.954;7.116;2022-10-18T08:44:53;12.53;;;10.10;;
5333;SDS011;2689;50.954;7.116;2022-10-18T08:47:22;11.77;;;9.20;;
5333;SDS011;2689;50.954;7.116;2022-10-18T08:50:01;13.77;;;8.60;;
5333;SDS011;2689;50.954;7.116;2022-10-18T08:52:31;14.90;;;7.50;;
5333;SDS011;2689;50.954;7.116;2022-10-18T08:55:01;10.70;;;9.10;;
5333;SDS011;2689;50.954;7.116;2022-10-18T08:57:32;13.77;;;8.97;;
5333;SDS011;2689;50.954;7.116;2022-10-18T09:00:00;14.47;;;10.10;;
5333;SDS011;2689;50.954;7.116;2022-10-18T09:02:34;13.17;;;10.70;;
5333;SDS011;2689;50.954;7.116;2022-10-18T09:07:56;16.23;;;11.33;;
5333;SDS011;2689;50.954;7.116;2022-10-18T09:10:49;24.23;;;14.10;;
5333;SDS011;2689;50.954;7.116;2022-10-18T09:13:40;21.50;;;13.30;;
5333;SDS011;2689;50.954;7.116;2022-10-18T09:16:25;21.50;;;15.20;;
5333;SDS011;2689;50.954;7.116;2022-10-18T09:19:00;24.53;;;15.93;;
5333;SDS011;2689;50.954;7.116;2022-10-18T09:21:41;24.27;;;15.10;;
5333;SDS011;2689;50.954;7.116;2022-10-18T09:24:18;28.63;;;18.40;;
5333;SDS011;2689;50.954;7.116;2022-10-18T09:26:51;28.70;;;18.83;;
5333;SDS011;2689;50.954;7.116;2022-10-18T09:29:39;30.30;;;19.33;;
5333;SDS011;2689;50.954;7.116;2022-10-18T09:32:26;37.00;;;21.97;;
5333;SDS011;2689;50.954;7.116;2022-10-18T09:35:11;31.50;;;18.97;;
5333;SDS011;2689;50.954;7.116;2022-10-18T09:37:44;33.47;;;20.03;;
5333;SDS011;2689;50.954;7.116;2022-10-18T09:40:15;33.90;;;19.47;;
5333;SDS011;2689;50.954;7.116;2022-10-18T09:42:50;33.60;;;19.20;;
5333;SDS011;2689;50.954;7.116;2022-10-18T09:45:22;35.30;;;20.17;;
5333;SDS011;2689;50.954;7.116;2022-10-18T09:48:02;38.60;;;20.47;;
5333;SDS011;2689;50.954;7.116;2022-10-18T09:50:38;38.90;;;20.27;;
5333;SDS011;2689;50.954;7.116;2022-10-18T09:53:20;35.40;;;21.93;;
5333;SDS011;2689;50.954;7.116;2022-10-18T09:55:58;38.33;;;20.63;;
5333;SDS011;2689;50.954;7.116;2022-10-18T09:58:32;31.00;;;18.13;;
5333;SDS011;2689;50.954;7.116;2022-10-18T10:01:08;32.83;;;18.57;;
5333;SDS011;2689;50.954;7.116;2022-10-18T10:03:37;38.43;;;21.07;;
5333;SDS011;2689;50.954;7.116;2022-10-18T10:09:00;39.47;;;18.23;;
5333;SDS011;2689;50.954;7.116;2022-10-18T10:11:34;30.20;;;17.67;;
5333;SDS011;2689;50.954;7.116;2022-10-18T10:14:06;30.43;;;19.40;;
5333;SDS011;2689;50.954;7.116;2022-10-18T10:16:41;33.10;;;17.60;;
5333;SDS011;2689;50.954;7.116;2022-10-18T10:19:19;28.40;;;17.10;;
5333;SDS011;2689;50.954;7.116;2022-10-18T10:21:49;32.13;;;17.70;;
5333;SDS011;2689;50.954;7.116;2022-10-18T10:24:22;32.00;;;21.67;;
5333;SDS011;2689;50.954;7.116;2022-10-18T10:26:57;37.20;;;25.33;;
5333;SDS011;2689;50.954;7.116;2022-10-18T10:29:46;37.23;;;22.17;;
5333;SDS011;2689;50.954;7.116;2022-10-18T10:32:24;34.33;;;21.80;;
5333;SDS011;2689;50.954;7.116;2022-10-18T10:34:54;36.90;;;19.90;;
5333;SDS011;2689;50.954;7.116;2022-10-18T10:37:29;33.30;;;20.70;;
5333;SDS011;2689;50.954;7.116;2022-10-18T10:40:09;39.50;;;21.47;;
5333;SDS011;2689;50.954;7.116;2022-10-18T10:42:51;36.33;;;21.43;;
5333;SDS011;2689;50.954;7.116;2022-10-18T10:45:33;30.50;;;19.33;;
5333;SDS011;2689;50.954;7.116;2022-10-18T10:48:04;39.27;;;22.43;;
5333;SDS011;2689;50.954;7.116;2022-10-18T10:50:58;34.13;;;20.10;;
5333;SDS011;2689;50.954;7.116;2022-10-18T10:53:29;40.73;;;20.40;;
5333;SDS011;2689;50.954;7.116;2022-10-18T10:56:03;45.00;;;22.47;;
5333;SDS011;2689;50.954;7.116;2022-10-18T10:58:33;47.23;;;25.43;;
5333;SDS011;2689;50.954;7.116;2022-10-18T11:01:21;61.73;;;38.83;;
5333;SDS011;2689;50.954;7.116;2022-10-18T11:03:55;45.40;;;26.20;;
5333;SDS011;2689;50.954;7.116;2022-10-18T11:06:39;42.70;;;22.60;;
5333;SDS011;2689;50.954;7.116;2022-10-18T11:09:26;51.87;;;27.03;;
5333;SDS011;2689;50.954;7.116;2022-10-18T11:15:02;41.63;;;22.00;;
5333;SDS011;2689;50.954;7.116;2022-10-18T11:17:38;42.53;;;25.17;;
5333;SDS011;2689;50.954;7.116;2022-10-18T11:22:56;51.23;;;30.43;;
5333;SDS011;2689;50.954;7.116;2022-10-18T11:25:28;44.47;;;24.43;;
5333;SDS011;2689;50.954;7.116;2022-10-18T11:28:26;44.60;;;26.77;;
5333;SDS011;2689;50.954;7.116;2022-10-18T11:31:07;38.00;;;25.07;;
5333;SDS011;2689;50.954;7.116;2022-10-18T11:33:42;40.53;;;25.80;;
5333;SDS011;2689;50.954;7.116;2022-10-18T11:36:17;42.77;;;24.93;;
5333;SDS011;2689;50.954;7.116;2022-10-18T11:38:52;41.87;;;23.97;;
5333;SDS011;2689;50.954;7.116;2022-10-18T11:41:29;45.10;;;26.10;;
5333;SDS011;2689;50.954;7.116;2022-10-18T11:44:07;46.90;;;26.97;;
5333;SDS011;2689;50.954;7.116;2022-10-18T11:46:44;47.57;;;29.63;;
5333;SDS011;2689;50.954;7.116;2022-10-18T11:49:26;47.83;;;28.07;;
5333;SDS011;2689;50.954;7.116;2022-10-18T11:52:13;49.37;;;25.50;;
5333;SDS011;2689;50.954;7.116;2022-10-18T11:54:51;50.87;;;30.00;;
5333;SDS011;2689;50.954;7.116;2022-10-18T11:57:30;44.03;;;26.97;;
5333;SDS011;2689;50.954;7.116;2022-10-18T12:00:21;39.47;;;26.37;;
5333;SDS011;2689;50.954;7.116;2022-10-18T12:03:01;40.83;;;24.17;;
5333;SDS011;2689;50.954;7.116;2022-10-18T12:05:40;42.60;;;25.77;;
5333;SDS011;2689;50.954;7.116;2022-10-18T12:08:10;40.57;;;25.77;;
5333;SDS011;2689;50.954;7.116;2022-10-18T12:10:40;45.50;;;22.80;;
5333;SDS011;2689;50.954;7.116;2022-10-18T12:13:13;31.50;;;22.57;;
5333;SDS011;2689;50.954;7.116;2022-10-18T12:15:46;35.73;;;25.10;;
5333;SDS011;2689;50.954;7.116;2022-10-18T12:18:15;39.70;;;23.90;;
5333;SDS011;2689;50.954;7.116;2022-10-18T12:20:50;40.93;;;22.70;;
5333;SDS011;2689;50.954;7.116;2022-10-18T12:23:21;39.17;;;22.57;;
5333;SDS011;2689;50.954;7.116;2022-10-18T12:25:59;32.40;;;21.40;;
5333;SDS011;2689;50.954;7.116;2022-10-18T12:28:32;32.93;;;22.70;;
5333;SDS011;2689;50.954;7.116;2022-10-18T12:31:12;34.13;;;21.70;;
5333;SDS011;2689;50.954;7.116;2022-10-18T12:33:49;28.70;;;21.07;;
5333;SDS011;2689;50.954;7.116;2022-10-18T12:36:24;32.87;;;22.50;;
5333;SDS011;2689;50.954;7.116;2022-10-18T12:39:15;26.33;;;19.33;;
5333;SDS011;2689;50.954;7.116;2022-10-18T12:41:46;33.70;;;22.90;;
5333;SDS011;2689;50.954;7.116;2022-10-18T12:44:17;33.07;;;23.57;;
5333;SDS011;2689;50.954;7.116;2022-10-18T12:46:48;33.00;;;21.73;;
5333;SDS011;2689;50.954;7.116;2022-10-18T12:49:17;43.90;;;29.80;;
5333;SDS011;2689;50.954;7.116;2022-10-18T12:51:49;38.30;;;24.17;;
5333;SDS011;2689;50.954;7.116;2022-10-18T12:54:19;37.67;;;23.70;;
5333;SDS011;2689;50.954;7.116;2022-10-18T12:56:48;31.70;;;23.77;;
5333;SDS011;2689;50.954;7.116;2022-10-18T13:02:29;33.57;;;25.43;;
5333;SDS011;2689;50.954;7.116;2022-10-18T13:04:57;32.13;;;26.50;;
5333;SDS011;2689;50.954;7.116;2022-10-18T13:07:38;31.83;;;24.77;;
5333;SDS011;2689;50.954;7.116;2022-10-18T13:13:24;35.00;;;27.23;;
5333;SDS011;2689;50.954;7.116;2022-10-18T13:16:01;36.47;;;27.80;;
5333;SDS011;2689;50.954;7.116;2022-10-18T13:18:36;36.20;;;27.37;;
5333;SDS011;2689;50.954;7.116;2022-10-18T13:21:14;39.03;;;30.97;;
5333;SDS011;2689;50.954;7.116;2022-10-18T13:23:49;36.47;;;27.30;;
5333;SDS011;2689;50.954;7.116;2022-10-18T13:26:29;45.60;;;31.33;;
5333;SDS011;2689;50.954;7.116;2022-10-18T13:29:21;48.50;;;34.60;;
5333;SDS011;2689;50.954;7.116;2022-10-18T13:31:58;55.40;;;36.20;;
5333;SDS011;2689;50.954;7.116;2022-10-18T13:34:33;58.83;;;39.47;;
5333;SDS011;2689;50.954;7.116;2022-10-18T13:37:03;58.73;;;37.67;;
5333;SDS011;2689;50.954;7.116;2022-10-18T13:39:31;56.67;;;37.97;;
5333;SDS011;2689;50.954;7.116;2022-10-18T13:42:17;63.33;;;39.17;;
5333;SDS011;2689;50.954;7.116;2022-10-18T13:47:55;58.57;;;34.10;;
5333;SDS011;2689;50.954;7.116;2022-10-18T13:50:34;51.43;;;32.70;;
5333;SDS011;2689;50.954;7.116;2022-10-18T13:53:17;45.80;;;31.40;;
5333;SDS011;2689;50.954;7.116;2022-10-18T13:56:05;50.30;;;30.90;;
5333;SDS011;2689;50.954;7.116;2022-10-18T13:58:47;43.20;;;28.70;;
5333;SDS011;2689;50.954;7.116;2022-10-18T14:01:29;36.83;;;24.50;;
5333;SDS011;2689;50.954;7.116;2022-10-18T14:04:25;35.67;;;24.40;;
5333;SDS011;2689;50.954;7.116;2022-10-18T14:07:02;40.03;;;26.70;;
5333;SDS011;2689;50.954;7.116;2022-10-18T14:09:42;40.63;;;25.17;;
5333;SDS011;2689;50.954;7.116;2022-10-18T14:12:13;35.97;;;23.30;;
5333;SDS011;2689;50.954;7.116;2022-10-18T14:14:53;36.27;;;23.50;;
5333;SDS011;2689;50.954;7.116;2022-10-18T14:17:30;34.87;;;24.57;;
5333;SDS011;2689;50.954;7.116;2022-10-18T14:20:03;38.23;;;22.63;;
5333;SDS011;2689;50.954;7.116;2022-10-18T14:22:41;34.83;;;23.70;;
5333;SDS011;2689;50.954;7.116;2022-10-18T14:25:20;32.63;;;21.47;;
5333;SDS011;2689;50.954;7.116;2022-10-18T14:27:48;32.90;;;23.43;;
5333;SDS011;2689;50.954;7.116;2022-10-18T14:30:32;30.27;;;18.80;;
5333;SDS011;2689;50.954;7.116;2022-10-18T14:33:00;29.50;;;19.97;;
5333;SDS011;2689;50.954;7.116;2022-10-18T14:35:42;25.77;;;18.50;;
5333;SDS011;2689;50.954;7.116;2022-10-18T14:38:13;25.87;;;18.83;;
5333;SDS011;2689;50.954;7.116;2022-10-18T14:40:40;26.97;;;17.57;;
5333;SDS011;2689;50.954;7.116;2022-10-18T14:43:10;24.70;;;17.07;;
5333;SDS011;2689;50.954;7.116;2022-10-18T14:45:38;27.23;;;18.67;;
5333;SDS011;2689;50.954;7.116;2022-10-18T14:48:06;25.13;;;16.83;;
5333;SDS011;2689;50.954;7.116;2022-10-18T14:50:39;26.50;;;16.87;;
5333;SDS011;2689;50.954;7.116;2022-10-18T14:53:10;19.97;;;15.17;;
5333;SDS011;2689;50.954;7.116;2022-10-18T14:55:41;19.10;;;14.60;;
5333;SDS011;2689;50.954;7.116;2022-10-18T14:58:10;18.93;;;13.10;;
5333;SDS011;2689;50.954;7.116;2022-10-18T15:00:40;18.50;;;13.03;;
5333;SDS011;2689;50.954;7.116;2022-10-18T15:03:14;22.80;;;14.13;;
5333;SDS011;2689;50.954;7.116;2022-10-18T15:05:56;14.33;;;11.20;;
5333;SDS011;2689;50.954;7.116;2022-10-18T15:08:29;19.93;;;11.67;;
5333;SDS011;2689;50.954;7.116;2022-10-18T15:11:00;14.27;;;9.23;;
5333;SDS011;2689;50.954;7.116;2022-10-18T15:13:28;21.03;;;11.70;;
5333;SDS011;2689;50.954;7.116;2022-10-18T15:16:05;13.10;;;7.60;;
5333;SDS011;2689;50.954;7.116;2022-10-18T15:19:03;11.33;;;8.03;;
5333;SDS011;2689;50.954;7.116;2022-10-18T15:21:47;13.10;;;7.90;;
5333;SDS011;2689;50.954;7.116;2022-10-18T15:24:25;14.90;;;8.30;;
5333;SDS011;2689;50.954;7.116;2022-10-18T15:26:55;13.43;;;7.90;;
5333;SDS011;2689;50.954;7.116;2022-10-18T15:29:25;10.47;;;7.27;;
5333;SDS011;2689;50.954;7.116;2022-10-18T15:32:01;11.87;;;7.90;;
5333;SDS011;2689;50.954;7.116;2022-10-18T15:34:33;18.07;;;10.60;;
5333;SDS011;2689;50.954;7.116;2022-10-18T15:37:04;20.90;;;10.00;;
5333;SDS011;2689;50.954;7.116;2022-10-18T15:39:43;18.33;;;10.73;;
5333;SDS011;2689;50.954;7.116;2022-10-18T15:47:56;21.60;;;14.13;;
5333;SDS011;2689;50.954;7.116;2022-10-18T15:50:34;17.17;;;11.70;;
5333;SDS011;2689;50.954;7.116;2022-10-18T15:53:24;23.30;;;15.87;;
5333;SDS011;2689;50.954;7.116;2022-10-18T15:56:00;20.80;;;10.80;;
5333;SDS011;2689;50.954;7.116;2022-10-18T15:58:35;15.13;;;10.87;;
5333;SDS011;2689;50.954;7.116;2022-10-18T16:01:06;19.30;;;11.47;;
5333;SDS011;2689;50.954;7.116;2022-10-18T16:03:39;19.70;;;9.90;;
5333;SDS011;2689;50.954;7.116;2022-10-18T16:06:08;16.47;;;9.87;;